createdAt,value
2019-05-18T00:01:43.019Z,85.14
2019-05-18T00:04:10.467Z,85.29
2019-05-18T00:06:37.849Z,85.30
2019-05-18T00:09:06.250Z,85.50
2019-05-18T00:11:33.773Z,85.67
2019-05-18T00:14:01.236Z,85.89
2019-05-18T00:16:28.703Z,85.82
2019-05-18T00:18:56.115Z,86.01
2019-05-18T00:21:23.393Z,86.07
2019-05-18T00:23:50.775Z,86.07
2019-05-18T00:26:18.166Z,86.08
2019-05-18T00:28:45.510Z,86.18
2019-05-18T00:31:12.983Z,86.09
2019-05-18T00:33:40.374Z,86.09
2019-05-18T00:36:07.887Z,86.18
2019-05-18T00:38:35.273Z,85.96
2019-05-18T00:41:02.608Z,85.68
2019-05-18T00:43:30.314Z,85.68
2019-05-18T00:45:57.570Z,85.76
2019-05-18T00:48:24.876Z,85.65
2019-05-18T00:50:52.125Z,85.54
2019-05-18T00:53:19.482Z,85.57
2019-05-18T00:55:46.717Z,85.50
2019-05-18T00:58:14.014Z,85.39
2019-05-18T01:00:41.295Z,85.35
2019-05-18T01:03:08.586Z,85.85
2019-05-18T01:05:38.024Z,86.33
2019-05-18T01:08:05.211Z,86.83
2019-05-18T01:10:32.715Z,86.70
2019-05-18T01:13:00.180Z,86.69
2019-05-18T01:15:27.606Z,86.64
2019-05-18T01:17:57.727Z,86.51
2019-05-18T01:20:24.247Z,86.51
2019-05-18T01:22:52.263Z,86.20
2019-05-18T01:25:19.802Z,85.73
2019-05-18T01:27:47.092Z,86.12
2019-05-18T01:30:16.073Z,86.25
2019-05-18T01:32:43.571Z,86.63
2019-05-18T01:35:11.358Z,86.96
2019-05-18T01:37:39.040Z,87.09
2019-05-18T01:40:06.526Z,87.29
2019-05-18T01:42:33.872Z,87.05
2019-05-18T01:45:15.831Z,87.04
2019-05-18T01:47:30.851Z,87.44
2019-05-18T01:49:58.370Z,87.86
2019-05-18T01:52:25.633Z,88.05
2019-05-18T01:54:52.904Z,88.04
2019-05-18T01:57:20.160Z,88.24
2019-05-18T01:59:47.396Z,88.29
2019-05-18T02:02:14.776Z,88.27
2019-05-18T02:04:42.065Z,88.24
2019-05-18T02:07:09.325Z,88.31
2019-05-18T02:09:36.620Z,88.20
2019-05-18T02:12:04.190Z,88.08
2019-05-18T02:14:31.444Z,88.23
2019-05-18T02:16:58.801Z,88.25
2019-05-18T02:19:26.063Z,88.12
2019-05-18T02:21:53.324Z,88.64
2019-05-18T02:24:20.601Z,88.56
2019-05-18T02:26:48.034Z,88.42
2019-05-18T02:29:15.408Z,88.16
2019-05-18T02:31:42.972Z,88.00
2019-05-18T02:34:10.239Z,87.80
2019-05-18T02:36:37.699Z,88.03
2019-05-18T02:39:06.400Z,88.02
2019-05-18T02:41:33.788Z,88.06
2019-05-18T02:44:01.279Z,88.10
2019-05-18T02:46:28.557Z,88.04
2019-05-18T02:48:55.913Z,88.14
2019-05-18T02:51:23.166Z,88.19
2019-05-18T02:53:50.479Z,88.17
2019-05-18T02:56:17.704Z,88.41
2019-05-18T02:58:44.997Z,88.29
2019-05-18T03:01:12.265Z,88.54
2019-05-18T03:03:39.512Z,88.47
2019-05-18T03:06:06.848Z,88.51
2019-05-18T03:08:34.108Z,88.36
2019-05-18T03:11:01.334Z,88.48
2019-05-18T03:13:28.777Z,88.65
2019-05-18T03:15:56.042Z,88.57
2019-05-18T03:18:23.328Z,88.96
2019-05-18T03:20:50.614Z,89.49
2019-05-18T03:23:17.911Z,89.29
2019-05-18T03:25:45.177Z,89.01
2019-05-18T03:28:12.460Z,88.86
2019-05-18T03:30:39.697Z,89.00
2019-05-18T03:33:06.962Z,89.07
2019-05-18T03:35:34.251Z,89.05
2019-05-18T03:38:01.552Z,89.10
2019-05-18T03:40:28.837Z,88.99
2019-05-18T03:42:56.074Z,89.41
2019-05-18T03:45:23.385Z,89.56
2019-05-18T03:47:50.635Z,89.71
2019-05-18T03:50:17.946Z,89.86
2019-05-18T03:52:45.231Z,89.82
2019-05-18T03:55:12.460Z,89.61
2019-05-18T03:57:39.748Z,89.72
2019-05-18T04:00:07.468Z,89.51
2019-05-18T04:02:34.751Z,89.57
2019-05-18T04:05:02.080Z,89.71
2019-05-18T04:07:29.475Z,89.73
2019-05-18T04:09:56.763Z,89.39
2019-05-18T04:12:24.040Z,89.48
2019-05-18T04:14:51.352Z,89.58
2019-05-18T04:17:18.623Z,89.59
2019-05-18T04:19:47.455Z,89.44
2019-05-18T04:22:15.083Z,89.48
2019-05-18T04:24:42.391Z,89.46
2019-05-18T04:27:09.769Z,89.58
2019-05-18T04:29:37.082Z,89.77
2019-05-18T04:32:04.303Z,89.96
2019-05-18T04:34:31.588Z,89.98
2019-05-18T04:36:58.973Z,89.89
2019-05-18T04:39:26.234Z,90.07
2019-05-18T04:41:53.559Z,90.39
2019-05-18T04:44:20.809Z,90.56
2019-05-18T04:46:48.195Z,90.45
2019-05-18T04:49:15.404Z,90.54
2019-05-18T04:51:42.685Z,90.46
2019-05-18T04:54:10.037Z,90.53
2019-05-18T04:56:37.411Z,90.61
2019-05-18T04:59:07.036Z,90.92
2019-05-18T05:01:34.486Z,91.28
2019-05-18T05:04:02.833Z,91.60
2019-05-18T05:06:30.363Z,91.83
2019-05-18T05:08:57.773Z,92.09
2019-05-18T05:11:25.022Z,92.35
2019-05-18T05:13:52.302Z,92.96
2019-05-18T05:16:21.002Z,93.28
2019-05-18T05:18:48.262Z,93.60
2019-05-18T05:21:15.577Z,92.84
2019-05-18T05:23:42.951Z,91.86
2019-05-18T05:26:10.272Z,90.85
2019-05-18T05:28:37.636Z,90.54
2019-05-18T05:31:04.861Z,90.21
2019-05-18T05:33:32.128Z,86.91
2019-05-18T05:35:59.387Z,84.87
2019-05-18T05:38:26.710Z,84.51
2019-05-18T05:40:54.003Z,81.78
2019-05-18T05:43:21.286Z,78.39
2019-05-18T05:45:48.546Z,75.30
2019-05-18T05:48:15.856Z,71.99
2019-05-18T05:50:43.237Z,70.84
2019-05-18T05:53:10.500Z,70.35
2019-05-18T05:55:37.869Z,70.56
2019-05-18T05:58:05.303Z,68.92
2019-05-18T06:00:32.667Z,67.85
2019-05-18T06:03:00.147Z,65.39
2019-05-18T06:05:27.730Z,65.22
2019-05-18T06:07:55.358Z,63.43
2019-05-18T06:10:22.781Z,61.59
2019-05-18T06:12:51.161Z,61.80
2019-05-18T06:15:18.692Z,61.70
2019-05-18T06:17:45.954Z,62.41
2019-05-18T06:20:13.356Z,60.56
2019-05-18T06:22:40.686Z,58.89
2019-05-18T06:25:08.995Z,58.23
2019-05-18T06:27:37.434Z,59.76
2019-05-18T06:30:05.496Z,60.48
2019-05-18T06:32:33.066Z,59.03
2019-05-18T06:35:00.412Z,58.04
2019-05-18T06:37:30.335Z,60.71
2019-05-18T06:39:57.707Z,58.41
2019-05-18T06:42:25.040Z,59.01
2019-05-18T06:44:52.344Z,59.81
2019-05-18T06:47:19.570Z,57.10
2019-05-18T06:49:51.041Z,59.62
2019-05-18T06:52:19.070Z,56.19
2019-05-18T06:54:46.449Z,60.06
2019-05-18T06:57:14.882Z,57.41
2019-05-18T06:59:42.180Z,56.43
2019-05-18T07:02:09.503Z,56.09
2019-05-18T07:04:36.807Z,56.81
2019-05-18T07:07:04.212Z,56.35
2019-05-18T07:09:31.496Z,58.61
2019-05-18T07:11:58.818Z,60.13
2019-05-18T07:14:26.334Z,57.34
2019-05-18T07:16:53.604Z,57.37
2019-05-18T07:19:20.980Z,55.09
2019-05-18T07:21:48.308Z,55.19
2019-05-18T07:24:15.619Z,55.50
2019-05-18T07:26:43.120Z,56.24
2019-05-18T07:29:10.506Z,52.70
2019-05-18T07:31:37.847Z,52.99
2019-05-18T07:34:05.312Z,56.54
2019-05-18T07:36:32.732Z,54.36
2019-05-18T07:39:00.074Z,53.69
2019-05-18T07:41:27.430Z,53.97
2019-05-18T07:43:54.774Z,51.92
2019-05-18T07:46:22.095Z,54.55
2019-05-18T07:48:49.575Z,55.28
2019-05-18T07:51:17.024Z,54.27
2019-05-18T07:53:44.402Z,53.08
2019-05-18T07:56:11.690Z,49.37
2019-05-18T07:58:38.951Z,48.44
2019-05-18T08:01:06.330Z,51.33
2019-05-18T08:03:33.593Z,48.39
2019-05-18T08:06:00.850Z,51.34
2019-05-18T08:08:28.150Z,49.14
2019-05-18T08:10:55.386Z,50.38
2019-05-18T08:13:22.693Z,50.05
2019-05-18T08:15:49.923Z,49.19
2019-05-18T08:18:17.211Z,49.53
2019-05-18T08:20:44.470Z,48.33
2019-05-18T08:23:11.843Z,45.96
2019-05-18T08:25:39.086Z,48.96
2019-05-18T08:28:06.488Z,46.36
2019-05-18T08:30:33.814Z,49.44
2019-05-18T08:33:01.116Z,44.39
2019-05-18T08:35:28.436Z,48.90
2019-05-18T08:37:55.732Z,43.60
2019-05-18T08:40:22.997Z,46.93
2019-05-18T08:42:50.397Z,47.43
2019-05-18T08:45:17.608Z,50.85
2019-05-18T08:47:44.898Z,45.95
2019-05-18T08:50:12.428Z,44.41
2019-05-18T08:52:39.798Z,45.32
2019-05-18T08:55:07.125Z,44.82
2019-05-18T08:57:35.404Z,45.92
2019-05-18T09:00:02.718Z,42.56
2019-05-18T09:02:31.203Z,43.39
2019-05-18T09:04:58.432Z,45.19
2019-05-18T09:07:25.686Z,42.51
2019-05-18T09:09:52.938Z,44.91
2019-05-18T09:12:20.247Z,39.85
2019-05-18T09:14:47.623Z,44.47
2019-05-18T09:17:14.948Z,42.18
2019-05-18T09:19:42.186Z,43.11
2019-05-18T09:22:22.447Z,43.11
2019-05-18T09:24:38.787Z,38.47
2019-05-18T09:27:06.109Z,41.51
2019-05-18T09:29:33.468Z,41.51
2019-05-18T09:32:00.789Z,39.56
2019-05-18T09:34:28.066Z,37.50
2019-05-18T09:36:55.361Z,39.07
2019-05-18T09:39:22.695Z,36.87
2019-05-18T09:41:50.102Z,37.22
2019-05-18T09:44:17.361Z,38.13
2019-05-18T09:46:44.652Z,37.98
2019-05-18T09:49:13.056Z,35.75
2019-05-18T09:51:40.333Z,38.43
2019-05-18T09:54:07.702Z,37.51
2019-05-18T09:56:34.997Z,35.71
2019-05-18T09:59:02.402Z,33.42
2019-05-18T10:01:29.692Z,34.81
2019-05-18T10:03:56.963Z,34.42
2019-05-18T10:06:24.174Z,33.49
2019-05-18T10:08:51.450Z,34.23
2019-05-18T10:11:18.742Z,32.85
2019-05-18T10:13:46.125Z,37.86
2019-05-18T10:16:13.485Z,35.37
2019-05-18T10:18:40.839Z,33.11
2019-05-18T10:21:08.049Z,33.29
2019-05-18T10:23:35.290Z,38.21
2019-05-18T10:26:03.614Z,32.72
2019-05-18T10:28:31.142Z,31.86
2019-05-18T10:30:58.416Z,31.64
2019-05-18T10:33:25.725Z,32.34
2019-05-18T10:35:53.000Z,30.74
2019-05-18T10:38:20.524Z,35.20
2019-05-18T10:40:48.007Z,32.54
2019-05-18T10:43:15.533Z,33.10
2019-05-18T10:45:45.100Z,30.11
2019-05-18T10:48:12.258Z,32.85
2019-05-18T10:50:39.587Z,31.70
2019-05-18T10:53:08.208Z,34.13
2019-05-18T10:55:35.675Z,32.14
2019-05-18T10:58:04.113Z,30.11
2019-05-18T11:00:31.795Z,31.44
2019-05-18T11:02:59.186Z,30.83
2019-05-18T11:05:26.409Z,30.31
2019-05-18T11:07:53.659Z,28.21
2019-05-18T11:10:21.219Z,31.52
2019-05-18T11:12:48.463Z,30.33
2019-05-18T11:15:15.834Z,31.30
2019-05-18T11:17:43.140Z,28.18
2019-05-18T11:20:11.012Z,29.06
2019-05-18T11:22:38.264Z,28.27
2019-05-18T11:25:05.879Z,29.05
2019-05-18T11:27:33.623Z,28.65
2019-05-18T11:30:00.964Z,25.62
2019-05-18T11:32:28.407Z,26.07
2019-05-18T11:34:55.768Z,26.12
2019-05-18T11:37:23.031Z,27.81
2019-05-18T11:39:50.300Z,25.41
2019-05-18T11:42:17.565Z,25.28
2019-05-18T11:44:44.801Z,26.45
2019-05-18T11:47:14.739Z,26.24
2019-05-18T11:49:42.057Z,25.26
2019-05-18T11:52:09.330Z,27.64
2019-05-18T11:54:36.590Z,25.29
2019-05-18T11:57:03.889Z,29.62
2019-05-18T11:59:32.135Z,27.17
2019-05-18T12:01:59.433Z,26.16
2019-05-18T12:04:26.774Z,25.72
2019-05-18T12:06:54.228Z,26.59
2019-05-18T12:09:21.513Z,28.79
2019-05-18T12:11:48.836Z,27.63
2019-05-18T12:14:16.145Z,24.13
2019-05-18T12:16:43.395Z,25.45
2019-05-18T12:19:10.960Z,24.97
2019-05-18T12:21:38.226Z,26.00
2019-05-18T12:24:14.591Z,22.87
2019-05-18T12:26:35.013Z,22.02
2019-05-18T12:29:02.291Z,22.20
2019-05-18T12:31:29.553Z,23.20
2019-05-18T12:33:56.895Z,22.97
2019-05-18T12:36:24.137Z,23.41
2019-05-18T12:38:51.434Z,25.70
2019-05-18T12:41:20.646Z,23.58
2019-05-18T12:43:48.119Z,23.80
2019-05-18T12:46:15.554Z,24.95
2019-05-18T12:48:42.882Z,24.06
2019-05-18T12:51:10.292Z,23.99
2019-05-18T12:53:37.534Z,25.41
2019-05-18T12:56:04.822Z,25.50
2019-05-18T12:58:32.047Z,25.59
2019-05-18T13:00:59.261Z,22.48
2019-05-18T13:03:26.589Z,23.13
2019-05-18T13:05:53.841Z,23.20
2019-05-18T13:08:21.098Z,23.81
2019-05-18T13:10:48.409Z,22.84
2019-05-18T13:13:16.705Z,22.12
2019-05-18T13:15:44.136Z,21.79
2019-05-18T13:18:12.490Z,27.36
2019-05-18T13:20:39.765Z,26.29
2019-05-18T13:23:07.030Z,26.30
2019-05-18T13:25:34.314Z,24.15
2019-05-18T13:28:01.685Z,20.36
2019-05-18T13:30:30.305Z,22.08
2019-05-18T13:32:57.876Z,19.51
2019-05-18T13:35:25.316Z,22.33
2019-05-18T13:37:52.676Z,20.58
2019-05-18T13:40:20.302Z,20.70
2019-05-18T13:42:47.600Z,25.72
2019-05-18T13:45:15.287Z,22.24
2019-05-18T13:47:42.713Z,22.82
2019-05-18T13:50:10.147Z,24.64
2019-05-18T13:52:37.547Z,21.64
2019-05-18T13:55:05.354Z,23.31
2019-05-18T13:57:32.676Z,21.09
2019-05-18T13:59:59.927Z,21.10
2019-05-18T14:02:27.257Z,18.09
2019-05-18T14:04:54.692Z,18.83
2019-05-18T14:07:22.017Z,21.85
2019-05-18T14:09:49.339Z,19.61
2019-05-18T14:12:16.623Z,19.83
2019-05-18T14:14:43.863Z,20.61
2019-05-18T14:17:11.094Z,21.08
2019-05-18T14:19:38.350Z,24.18
2019-05-18T14:22:05.594Z,22.61
2019-05-18T14:24:32.886Z,22.20
2019-05-18T14:27:00.139Z,22.26
2019-05-18T14:29:27.425Z,19.29
2019-05-18T14:31:54.672Z,20.94
2019-05-18T14:34:22.612Z,21.64
2019-05-18T14:36:49.977Z,20.78
2019-05-18T14:39:17.632Z,20.64
2019-05-18T14:41:45.205Z,20.35
2019-05-18T14:44:12.707Z,22.09
2019-05-18T14:46:40.134Z,22.15
2019-05-18T14:49:07.406Z,23.10
2019-05-18T14:51:34.659Z,22.59
2019-05-18T14:54:02.175Z,21.90
2019-05-18T14:56:29.540Z,22.07
2019-05-18T14:58:56.774Z,21.63
2019-05-18T15:01:24.024Z,21.05
2019-05-18T15:03:52.376Z,23.23
2019-05-18T15:06:19.692Z,24.12
2019-05-18T15:08:46.917Z,26.41
2019-05-18T15:11:14.183Z,25.63
2019-05-18T15:13:41.725Z,28.20
2019-05-18T15:16:08.979Z,30.42
2019-05-18T15:18:36.261Z,28.34
2019-05-18T15:21:03.507Z,28.09
2019-05-18T15:23:30.737Z,30.45
2019-05-18T15:25:58.113Z,30.92
2019-05-18T15:28:25.512Z,26.52
2019-05-18T15:30:52.969Z,25.99
2019-05-18T15:33:20.306Z,23.43
2019-05-18T15:35:47.836Z,25.83
2019-05-18T15:38:15.472Z,27.68
2019-05-18T15:40:42.866Z,26.21
2019-05-18T15:43:10.180Z,25.35
2019-05-18T15:45:37.668Z,23.86
2019-05-18T15:48:04.947Z,23.93
2019-05-18T15:50:32.459Z,23.38
2019-05-18T15:53:01.395Z,22.89
2019-05-18T15:55:28.756Z,24.54
2019-05-18T15:57:56.402Z,23.17
2019-05-18T16:00:24.439Z,23.07
2019-05-18T16:02:52.189Z,24.82
2019-05-18T16:05:19.513Z,25.72
2019-05-18T16:07:46.944Z,26.99
2019-05-18T16:10:15.003Z,27.56
2019-05-18T16:12:42.394Z,26.85
2019-05-18T16:15:10.053Z,25.05
2019-05-18T16:17:39.818Z,25.99
2019-05-18T16:20:07.184Z,27.20
2019-05-18T16:22:34.572Z,26.71
2019-05-18T16:25:02.851Z,25.40
2019-05-18T16:27:31.992Z,25.13
2019-05-18T16:30:00.521Z,26.59
2019-05-18T16:32:27.798Z,25.91
2019-05-18T16:34:55.635Z,25.22
2019-05-18T16:37:22.964Z,26.11
2019-05-18T16:39:50.576Z,26.19
2019-05-18T16:42:18.124Z,25.45
2019-05-18T16:44:45.569Z,25.12
2019-05-18T16:47:13.000Z,24.46
2019-05-18T16:49:40.549Z,24.23
2019-05-18T16:52:07.813Z,26.43
2019-05-18T16:54:35.136Z,24.08
2019-05-18T16:57:02.409Z,24.72
2019-05-18T16:59:30.340Z,28.04
2019-05-18T17:01:58.464Z,29.60
2019-05-18T17:04:27.564Z,29.92
2019-05-18T17:06:55.400Z,30.73
2019-05-18T17:09:23.438Z,30.79
2019-05-18T17:11:50.983Z,31.43
2019-05-18T17:14:18.407Z,32.05
2019-05-18T17:16:45.779Z,34.96
2019-05-18T17:19:13.147Z,36.04
2019-05-18T17:21:40.521Z,36.93
2019-05-18T17:24:08.907Z,38.52
2019-05-18T17:26:51.492Z,37.87
2019-05-18T17:29:05.613Z,37.87
2019-05-18T17:31:33.025Z,39.07
2019-05-18T17:34:00.328Z,39.88
2019-05-18T17:36:28.169Z,40.31
2019-05-18T17:38:55.523Z,39.62
2019-05-18T17:41:22.800Z,40.02
2019-05-18T17:43:53.190Z,42.93
2019-05-18T17:46:20.493Z,41.06
2019-05-18T17:48:47.917Z,41.18
2019-05-18T17:51:15.414Z,42.03
2019-05-18T17:53:42.822Z,41.71
2019-05-18T17:56:10.094Z,41.12
2019-05-18T17:58:37.655Z,41.10
2019-05-18T18:01:05.058Z,41.81
2019-05-18T18:03:32.364Z,42.76
2019-05-18T18:05:59.751Z,44.75
2019-05-18T18:08:27.129Z,43.36
2019-05-18T18:10:54.504Z,43.52
2019-05-18T18:13:21.887Z,44.19
2019-05-18T18:15:49.360Z,43.41
2019-05-18T18:18:16.704Z,45.08
2019-05-18T18:20:44.149Z,44.84
2019-05-18T18:23:11.632Z,44.67
2019-05-18T18:25:39.111Z,43.95
2019-05-18T18:28:06.527Z,45.28
2019-05-18T18:30:33.921Z,44.63
2019-05-18T18:33:01.348Z,44.78
2019-05-18T18:35:28.650Z,45.35
2019-05-18T18:37:56.110Z,45.20
2019-05-18T18:40:23.414Z,46.34
2019-05-18T18:42:50.866Z,48.34
2019-05-18T18:45:18.344Z,48.38
2019-05-18T18:47:45.766Z,49.16
2019-05-18T18:50:13.192Z,49.57
2019-05-18T18:52:40.732Z,51.19
2019-05-18T18:55:08.981Z,49.32
2019-05-18T18:57:41.205Z,51.27
2019-05-18T19:00:06.784Z,51.60
2019-05-18T19:02:34.431Z,52.24
2019-05-18T19:07:23.897Z,54.29
2019-05-18T19:09:51.293Z,54.96
2019-05-18T19:12:18.622Z,56.07
2019-05-18T19:14:45.950Z,57.05
2019-05-18T19:17:13.494Z,58.12
2019-05-18T19:19:40.824Z,59.79
2019-05-18T19:22:08.199Z,60.64
2019-05-18T19:24:35.613Z,61.73
2019-05-18T19:27:03.124Z,63.41
2019-05-18T19:29:30.501Z,64.77
2019-05-18T19:31:57.803Z,65.40
2019-05-18T19:34:25.062Z,66.22
2019-05-18T19:36:52.494Z,66.63
2019-05-18T19:39:19.768Z,67.20
2019-05-18T19:41:47.237Z,67.60
2019-05-18T19:44:14.556Z,67.96
2019-05-18T19:46:41.892Z,68.46
2019-05-18T19:49:09.265Z,69.99
2019-05-18T19:51:36.815Z,70.19
2019-05-18T19:54:04.182Z,70.84
2019-05-18T19:56:39.225Z,70.74
2019-05-18T19:59:00.736Z,71.37
2019-05-18T20:01:28.078Z,71.97
2019-05-18T20:03:55.650Z,72.39
2019-05-18T20:06:23.092Z,72.90
2019-05-18T20:08:50.367Z,73.07
2019-05-18T20:11:17.658Z,73.61
2019-05-18T20:13:45.036Z,73.90
2019-05-18T20:16:12.282Z,74.58
2019-05-18T20:18:39.852Z,75.79
2019-05-18T20:21:07.226Z,76.26
2019-05-18T20:23:34.602Z,76.99
2019-05-18T20:26:01.938Z,77.09
2019-05-18T20:28:29.322Z,77.75
2019-05-18T20:30:56.716Z,77.76
2019-05-18T20:33:24.008Z,77.82
2019-05-18T20:35:51.308Z,77.76
2019-05-18T20:38:18.821Z,78.21
2019-05-18T20:40:46.163Z,78.07
2019-05-18T20:43:13.484Z,77.76
2019-05-18T20:45:40.805Z,78.45
2019-05-18T20:48:08.092Z,79.03
2019-05-18T20:50:35.366Z,79.67
2019-05-18T20:53:02.752Z,80.01
2019-05-18T20:55:30.180Z,80.69
2019-05-18T20:57:57.689Z,80.81
2019-05-18T21:00:25.052Z,81.20
2019-05-18T21:02:52.541Z,81.48
2019-05-18T21:05:19.935Z,80.76
2019-05-18T21:07:47.259Z,81.16
2019-05-18T21:10:14.765Z,81.72
2019-05-18T21:12:42.086Z,81.79
2019-05-18T21:15:10.055Z,82.20
2019-05-18T21:17:38.568Z,82.82
2019-05-18T21:20:07.078Z,82.78
2019-05-18T21:22:34.372Z,82.73
2019-05-18T21:25:01.827Z,82.64
2019-05-18T21:27:29.322Z,82.78
2019-05-18T21:29:56.596Z,83.41
2019-05-18T21:32:23.888Z,83.63
2019-05-18T21:34:51.174Z,83.92
2019-05-18T21:37:18.428Z,83.76
2019-05-18T21:39:46.700Z,83.70
2019-05-18T21:42:14.945Z,83.95
2019-05-18T21:44:42.225Z,84.18
2019-05-18T21:47:09.516Z,83.96
2019-05-18T21:49:36.802Z,83.98
2019-05-18T21:52:04.072Z,83.94
2019-05-18T21:54:31.330Z,84.55
2019-05-18T21:56:58.610Z,84.77
2019-05-18T21:59:25.833Z,84.38
2019-05-18T22:01:53.228Z,84.45
2019-05-18T22:04:20.491Z,84.55
2019-05-18T22:06:47.783Z,84.94
2019-05-18T22:09:15.036Z,84.63
2019-05-18T22:11:42.447Z,84.60
2019-05-18T22:14:09.672Z,84.74
2019-05-18T22:16:36.987Z,84.94
2019-05-18T22:19:04.282Z,85.16
2019-05-18T22:21:31.668Z,85.01
2019-05-18T22:23:59.926Z,85.02
2019-05-18T22:26:27.383Z,85.58
2019-05-18T22:28:54.780Z,85.56
2019-05-18T22:31:22.362Z,85.73
2019-05-18T22:33:49.602Z,85.61
2019-05-18T22:36:16.930Z,85.34
2019-05-18T22:38:44.219Z,85.55
2019-05-18T22:41:11.485Z,85.76
2019-05-18T22:43:38.868Z,85.82
2019-05-18T22:46:06.206Z,85.82
2019-05-18T22:48:41.372Z,86.02
2019-05-18T22:51:02.738Z,86.06
2019-05-18T22:53:30.090Z,86.02
2019-05-18T22:55:57.347Z,86.17
2019-05-18T22:58:25.584Z,86.39
2019-05-18T23:00:53.890Z,86.19
2019-05-18T23:03:22.365Z,86.65
2019-05-18T23:05:49.899Z,86.61
2019-05-18T23:08:17.316Z,86.69
2019-05-18T23:10:44.607Z,86.73
2019-05-18T23:13:12.083Z,86.56
2019-05-18T23:15:39.412Z,86.22
2019-05-18T23:18:06.704Z,86.11
2019-05-18T23:20:34.102Z,86.09
2019-05-18T23:23:01.718Z,86.35
2019-05-18T23:25:29.087Z,86.62
2019-05-18T23:27:56.484Z,86.40
2019-05-18T23:30:23.898Z,86.20
2019-05-18T23:32:51.279Z,86.27
2019-05-18T23:35:18.533Z,86.55
2019-05-18T23:37:46.063Z,86.84
2019-05-18T23:40:14.334Z,86.73
2019-05-18T23:42:41.751Z,86.63
2019-05-18T23:45:09.253Z,86.70
2019-05-18T23:47:36.545Z,87.10
2019-05-18T23:50:04.601Z,86.77
2019-05-18T23:52:31.955Z,86.57
2019-05-18T23:54:59.231Z,86.51
2019-05-18T23:57:26.712Z,86.38
2019-05-18T23:59:54.022Z,86.40
